Impacts TAF Board
For situational awareness. Not to be used for flight planning purposes.
IDs:

KMCO - Orlando Intl, FL, US

Issued at 0306 UTC 03 Jul 2022
Updated at 0338 UTC 03 Jul 2022
Potential Impact None Slight Moderate High
Time0253Z 03/04Z 03/05Z 03/06Z 03/07Z 03/08Z 03/09Z 03/10Z 03/11Z 03/12Z 03/13Z 03/14Z 03/15Z 03/16Z>>
Type OBS PRVL PRVL PRVL PRVL PRVL PRVL PRVL PRVL PRVL PRVL PRVL PRVL PRVL
VIS 10 >6 >6 >6 >6 >6 >6 >6 >6 >6 >6 >6 >6 >6
CIG 140 140 140 140 140 140 140 140 140 140 140 -- -- --
Cover OVC BKN BKN BKN BKN BKN BKN BKN BKN BKN BKN SCT SCT SCT
FltCat VFR VFR VFR VFR VFR VFR VFR VFR VFR VFR VFR VFR VFR VFR
WX -- -- -- -- -- -- -- -- -- -- -- -- -- --
WDir VRB VRB VRB VRB VRB VRB VRB VRB VRB VRB VRB 200 200 200
WSpd 0 3 3 3 3 3 3 3 3 3 3 5 5 5
WGst -- -- -- -- -- -- -- -- -- -- -- -- -- --
WSHgt -- -- -- -- -- -- -- -- -- -- -- -- -- --
WSDir -- -- -- -- -- -- -- -- -- -- -- -- -- --
WSSpd -- -- -- -- -- -- -- -- -- -- -- -- -- --
Raw TAF
KMCO 030306Z 0303/0406 VRB03KT P6SM FEW040 BKN140 BKN250
  FM031400 20005KT P6SM SCT025 SCT140 SCT250
  FM031700 22009KT P6SM VCTS SCT035CB BKN060 BKN250
  FM032300 10007KT P6SM VCSH FEW040 SCT100 BKN250
  FM040200 14002KT P6SM FEW040 BKN140 BKN250


Raw METAR
KMCO 030253Z 00000KT 10SM BKN140 OVC250 26/23 A3008 RMK AO2 SLP183 T02610228 51006
KMCO 030153Z 00000KT 10SM FEW040 BKN180 OVC250 27/23 A3007 RMK AO2 SLP181 T02670228
KMCO 030053Z 11003KT 10SM FEW040 BKN140 OVC200 27/23 A3007 RMK AO2 SLP179 T02670228

METAR Board
Radar Display
Forecast Discussion
For situational awareness. Not to be used for flight planning purposes.